Terminal Aerodrome Forecast
Issued by NWS

Current Version | Previous Version | Text Only | Print | Product List | Glossary On
Versions: 1 2 3 4 5 6 7 8 9 10 11 12 13 14 15 16 17 18 19 20 21 22 23 24
000
FTUS44 KOUN 272328
TAFGAG
TAF
KGAG 272328Z 2800/2824 17018G26KT P6SM BKN100
      TEMPO 2800/2804 6SM -RA BKN030
     FM280500 21006KT P6SM SCT100
     FM280900 28008KT P6SM SCT100=

USA.gov is the U.S. government's official web portal to all federal, state and local government web resources and services.